createdAt,value
2022-08-28T00:00:32.143Z,-25.6
2022-08-28T00:02:33.976Z,-25.7
2022-08-28T00:04:35.104Z,-25.7
2022-08-28T00:06:36.609Z,-25.7
2022-08-28T00:08:37.684Z,-25.6
2022-08-28T00:10:38.974Z,-25.6
2022-08-28T00:12:40.709Z,-25.5
2022-08-28T00:14:41.961Z,-25.4
2022-08-28T00:18:44.689Z,-25.6
2022-08-28T00:20:46.033Z,-25.5
2022-08-28T00:22:46.911Z,-25.4
2022-08-28T00:24:48.475Z,-25.4
2022-08-28T00:26:50.233Z,-25.6
2022-08-28T00:28:51.098Z,-25.5
2022-08-28T00:30:52.377Z,-25.5
2022-08-28T00:32:54.137Z,-25.3
2022-08-28T00:34:55.107Z,-25.7
2022-08-28T00:38:57.711Z,-25.8
2022-08-28T00:40:59.314Z,-25.4
2022-08-28T00:43:00.615Z,-25.4
2022-08-28T00:45:02.360Z,-25.7
2022-08-28T00:47:04.224Z,-25.7
2022-08-28T00:49:05.611Z,-25.8
2022-08-28T00:51:06.608Z,-25.5
2022-08-28T00:53:07.951Z,-25.4
2022-08-28T00:55:09.207Z,-25.6
2022-08-28T00:57:11.026Z,-25.5
2022-08-28T00:59:11.938Z,-25.6
2022-08-28T01:01:13.060Z,-25.4
2022-08-28T01:03:14.073Z,-25.5
2022-08-28T01:05:24.873Z,-25.6
2022-08-28T01:07:16.909Z,-25.5
2022-08-28T01:11:19.137Z,-25.7
2022-08-28T01:13:20.934Z,-25.7
2022-08-28T01:15:22.448Z,-25.2
2022-08-28T01:17:23.896Z,-25.6
2022-08-28T01:19:24.940Z,-25.3
2022-08-28T01:21:26.499Z,-25.5
2022-08-28T01:23:27.843Z,-25.4
2022-08-28T01:25:29.145Z,-25.2
2022-08-28T01:27:30.131Z,-25.4
2022-08-28T01:29:31.701Z,-25.8
2022-08-28T01:31:32.651Z,-25.8
2022-08-28T01:33:33.810Z,-25.5
2022-08-28T01:35:35.652Z,-25.9
2022-08-28T01:37:36.990Z,-25.6
2022-08-28T01:38:22.004Z,-26.1
2022-08-28T01:40:21.914Z,-25.6
2022-08-28T01:42:23.084Z,-25.5
2022-08-28T01:44:24.891Z,-25.7
2022-08-28T01:46:35.369Z,-25.7
2022-08-28T01:48:27.525Z,-25.8
2022-08-28T01:50:28.537Z,-25.6
2022-08-28T01:54:32.003Z,-25.7
2022-08-28T01:56:33.757Z,-25.6
2022-08-28T02:00:36.151Z,-26.1
2022-08-28T02:02:37.707Z,-25.8
2022-08-28T02:08:42.017Z,-25.9
2022-08-28T02:12:44.849Z,-25.6
2022-08-28T02:14:45.989Z,-25.9
2022-08-28T02:16:55.286Z,-26
2022-08-28T02:18:48.334Z,-25.6
2022-08-28T02:20:49.377Z,-25.9
2022-08-28T02:22:51.157Z,-25.9
2022-08-28T02:24:52.294Z,-26
2022-08-28T02:26:54.179Z,-25.7
2022-08-28T02:28:55.161Z,-25.8
2022-08-28T02:30:56.481Z,-25.8
2022-08-28T02:32:57.801Z,-26.1
2022-08-28T02:34:59.272Z,-25.8
2022-08-28T02:37:00.818Z,-25.7
2022-08-28T02:39:02.498Z,-25.9
2022-08-28T02:41:04.276Z,-25.6
2022-08-28T02:43:05.194Z,-25.9
2022-08-28T02:45:06.376Z,-25.8
2022-08-28T02:47:08.197Z,-26.2
2022-08-28T02:49:09.880Z,-25.9
2022-08-28T02:51:11.061Z,-25.8
2022-08-28T02:53:12.394Z,-25.9
2022-08-28T02:55:13.945Z,-25.8
2022-08-28T02:57:15.451Z,-25.9
2022-08-28T02:59:16.397Z,-25.9
2022-08-28T03:01:17.414Z,-26
2022-08-28T03:03:18.287Z,-26
2022-08-28T03:05:19.766Z,-26
2022-08-28T03:07:21.461Z,-25.8
2022-08-28T03:09:22.646Z,-25.9
2022-08-28T03:11:24.252Z,-26.1
2022-08-28T03:13:26.600Z,-26.2
2022-08-28T03:15:27.384Z,-26
2022-08-28T03:17:28.451Z,-26.1
2022-08-28T03:19:29.890Z,-25.8
2022-08-28T03:21:31.490Z,-26.5
2022-08-28T03:23:33.257Z,-26.3
2022-08-28T03:27:36.050Z,-26.1
2022-08-28T03:29:37.358Z,-26.2
2022-08-28T03:31:39.154Z,-26.2
2022-08-28T03:33:42.528Z,-26.1
2022-08-28T03:35:41.961Z,-25.9
2022-08-28T03:37:43.428Z,-26.4
2022-08-28T03:41:45.773Z,-26.2
2022-08-28T03:43:47.322Z,-26.6
2022-08-28T03:47:49.750Z,-26.2
2022-08-28T03:49:51.065Z,-26.4
2022-08-28T03:51:52.703Z,-26
2022-08-28T03:53:54.509Z,-26.3
2022-08-28T03:57:58.075Z,-26.1
2022-08-28T03:59:59.399Z,-26.3
2022-08-28T04:02:01.188Z,-26.2
2022-08-28T04:04:02.155Z,-26.1
2022-08-28T04:08:04.622Z,-26.2
2022-08-28T04:10:06.353Z,-26.1
2022-08-28T04:12:07.926Z,-26.3
2022-08-28T04:14:08.929Z,-26.2
2022-08-28T04:18:12.466Z,-25.8
2022-08-28T04:20:13.593Z,-26.1
2022-08-28T04:22:14.874Z,-26.3
2022-08-28T04:24:16.654Z,-26.2
2022-08-28T04:26:18.163Z,-26.1
2022-08-28T04:28:19.317Z,-26.2
2022-08-28T04:30:21.069Z,-26.3
2022-08-28T04:32:22.902Z,-26.3
2022-08-28T04:34:24.480Z,-26.2
2022-08-28T04:38:27.403Z,-26.1
2022-08-28T04:40:28.722Z,-26.5
2022-08-28T04:42:30.262Z,-26.2
2022-08-28T04:48:34.351Z,-26.5
2022-08-28T04:50:35.741Z,-26.2
2022-08-28T04:52:37.273Z,-26.5
2022-08-28T04:54:38.297Z,-26.6
2022-08-28T04:56:39.305Z,-26.5
2022-08-28T04:58:40.835Z,-26.6
2022-08-28T05:00:42.346Z,-26.4
2022-08-28T05:02:44.061Z,-26.6
2022-08-28T05:04:45.302Z,-26.6
2022-08-28T05:06:46.680Z,-26.2
2022-08-28T05:08:47.706Z,-26.5
2022-08-28T05:10:49.263Z,-26.6
2022-08-28T05:12:50.899Z,-26.5
2022-08-28T05:14:52.698Z,-26.7
2022-08-28T05:16:53.912Z,-26.6
2022-08-28T05:18:55.503Z,-26.9
2022-08-28T05:22:57.950Z,-26.8
2022-08-28T05:24:59.743Z,-26.6
2022-08-28T05:27:01.432Z,-26.7
2022-08-28T05:29:02.336Z,-26.9
2022-08-28T05:35:06.761Z,-26.8
2022-08-28T05:37:08.238Z,-26.7
2022-08-28T05:39:09.566Z,-26.9
2022-08-28T05:41:11.188Z,-27
2022-08-28T05:43:12.165Z,-27.1
2022-08-28T05:45:13.208Z,-26.8
2022-08-28T05:47:14.709Z,-27.3
2022-08-28T05:49:15.749Z,-26.9
2022-08-28T05:51:17.485Z,-27
2022-08-28T05:53:19.201Z,-26.9
2022-08-28T05:55:20.719Z,-27
2022-08-28T05:57:22.305Z,-27.4
2022-08-28T05:59:23.206Z,-27.3
2022-08-28T06:01:24.255Z,-27
2022-08-28T06:03:25.247Z,-27
2022-08-28T06:05:26.907Z,-21.7
2022-08-28T06:07:28.220Z,-18.7
2022-08-28T06:11:31.903Z,-12.6
2022-08-28T06:13:32.804Z,-8.89
2022-08-28T06:15:34.630Z,-8.5
2022-08-28T06:17:36.316Z,-7.2
2022-08-28T06:19:41.212Z,-7.3
2022-08-28T06:21:38.561Z,-5.8
2022-08-28T06:23:39.638Z,-3.9
2022-08-28T06:25:40.632Z,-3.4
2022-08-28T06:31:44.646Z,-7.9
2022-08-28T06:37:48.249Z,-3
2022-08-28T06:39:50.057Z,1.7
2022-08-28T06:41:51.101Z,5.4
2022-08-28T06:43:52.112Z,6
2022-08-28T06:45:53.060Z,6.7
2022-08-28T06:47:54.408Z,11.2
2022-08-28T06:49:55.744Z,17.79
2022-08-28T06:51:57.214Z,14.9
2022-08-28T06:56:00.576Z,5.8
2022-08-28T06:58:02.285Z,5.8
2022-08-28T07:00:03.572Z,8.39
2022-08-28T07:02:04.867Z,8
2022-08-28T07:04:06.080Z,11.1
2022-08-28T07:06:07.133Z,13.6
2022-08-28T07:08:08.869Z,17.1
2022-08-28T07:10:10.565Z,11.3
2022-08-28T07:12:12.318Z,13.9
2022-08-28T07:14:13.992Z,16.4
2022-08-28T07:16:15.187Z,13
2022-08-28T07:20:17.784Z,17.5
2022-08-28T07:22:19.396Z,19.9
2022-08-28T07:24:21.132Z,11
2022-08-28T07:26:22.796Z,12.1
2022-08-28T07:28:23.843Z,8.8
2022-08-28T07:30:24.707Z,8.39
2022-08-28T07:32:26.471Z,7.2
2022-08-28T07:34:28.145Z,6.3
2022-08-28T07:36:30.076Z,7.1
2022-08-28T07:38:30.120Z,10.2
2022-08-28T07:40:31.499Z,17.29
2022-08-28T07:42:35.504Z,32.2
2022-08-28T07:44:34.408Z,40.5
2022-08-28T07:46:35.280Z,40.4
2022-08-28T07:48:37.059Z,33.9
2022-08-28T07:50:38.812Z,31.6
2022-08-28T07:52:40.083Z,28.3
2022-08-28T07:54:41.123Z,31.5
2022-08-28T07:56:42.037Z,37.4
2022-08-28T07:58:43.230Z,44
2022-08-28T08:00:44.782Z,49.9
2022-08-28T08:02:46.332Z,74.6
2022-08-28T08:04:47.317Z,73.19
2022-08-28T08:06:48.633Z,72.8
2022-08-28T08:08:50.386Z,72
2022-08-28T08:14:53.506Z,70
2022-08-28T08:16:55.050Z,68.69
2022-08-28T08:18:56.801Z,67.69
2022-08-28T08:20:58.118Z,67.1
2022-08-28T08:22:59.142Z,65.4
2022-08-28T08:25:00.894Z,64.8
2022-08-28T08:25:44.638Z,64.9
2022-08-28T08:27:46.416Z,63.5
2022-08-28T08:29:47.732Z,62.7
2022-08-28T08:31:48.861Z,61.4
2022-08-28T08:33:50.070Z,61.2
2022-08-28T08:35:51.652Z,59.7
2022-08-28T08:37:52.592Z,58.5
2022-08-28T08:39:53.944Z,57
2022-08-28T08:41:55.023Z,55
2022-08-28T08:43:55.980Z,54.2
2022-08-28T08:45:57.710Z,53.3
2022-08-28T08:47:58.596Z,50.7
2022-08-28T08:49:59.862Z,49.2
2022-08-28T08:52:00.779Z,48.3
2022-08-28T08:54:02.560Z,46.5
2022-08-28T08:56:03.511Z,45.1
2022-08-28T08:58:04.411Z,43.2
2022-08-28T09:00:05.292Z,40.8
2022-08-28T09:02:06.093Z,38
2022-08-28T09:04:06.922Z,36.5
2022-08-28T09:06:08.281Z,34.9
2022-08-28T09:08:09.572Z,33
2022-08-28T09:10:10.881Z,30.3
2022-08-28T09:12:12.089Z,29.1
2022-08-28T09:14:13.557Z,27.5
2022-08-28T09:16:15.071Z,25.7
2022-08-28T09:22:19.473Z,21
2022-08-28T09:24:20.720Z,21.2
2022-08-28T09:28:23.786Z,18.1
2022-08-28T09:30:24.831Z,16.29
2022-08-28T09:32:25.928Z,16.2
2022-08-28T09:34:26.802Z,15.7
2022-08-28T09:38:29.187Z,14.6
2022-08-28T09:40:30.586Z,12.9
2022-08-28T09:42:32.071Z,12.4
2022-08-28T09:48:35.245Z,10
2022-08-28T09:50:36.674Z,10
2022-08-28T09:54:39.454Z,8.6
2022-08-28T09:56:40.376Z,9.3
2022-08-28T09:58:41.225Z,-25.7
2022-08-28T10:00:42.312Z,-25.8
2022-08-28T10:02:43.262Z,-25.8
2022-08-28T10:04:44.561Z,-25.9
2022-08-28T10:06:46.026Z,-25.9
2022-08-28T10:08:47.445Z,-25.7
2022-08-28T10:10:48.316Z,-25.7
2022-08-28T10:12:49.884Z,-25.7
2022-08-28T10:14:50.793Z,-25.8
2022-08-28T10:16:51.756Z,-25.7
2022-08-28T10:20:54.673Z,-25.9
2022-08-28T10:22:55.833Z,-25.5
2022-08-28T10:24:56.985Z,-25.5
2022-08-28T10:26:58.680Z,-25.7
2022-08-28T10:29:00.019Z,-25.7
2022-08-28T10:31:01.607Z,-25.7
2022-08-28T10:33:02.319Z,-25.8
2022-08-28T10:37:05.696Z,-25.6
2022-08-28T10:39:06.974Z,-25.9
2022-08-28T10:41:07.816Z,-25.8
2022-08-28T10:43:08.902Z,-25.6
2022-08-28T10:45:10.839Z,-25.5
2022-08-28T10:47:12.511Z,-25.7
2022-08-28T10:49:13.797Z,-25.3
2022-08-28T10:51:15.496Z,-25.4
2022-08-28T10:53:16.486Z,-25.8
2022-08-28T10:55:17.927Z,-25.9
2022-08-28T10:57:19.047Z,-25.7
2022-08-28T10:59:20.658Z,-25.6
2022-08-28T11:01:22.178Z,-25.6
2022-08-28T11:03:34.245Z,-25.6
2022-08-28T11:05:24.725Z,-25.6
2022-08-28T11:07:25.689Z,-25.8
2022-08-28T11:09:26.947Z,-25.5
2022-08-28T11:11:28.167Z,-25.4
2022-08-28T11:13:29.055Z,-25.6
2022-08-28T11:15:36.643Z,-25.5
2022-08-28T11:17:32.139Z,-25.5
2022-08-28T11:19:33.706Z,-25.5
2022-08-28T11:21:34.966Z,-25.6
2022-08-28T11:23:36.206Z,-25.9
2022-08-28T11:25:37.675Z,-25.8
2022-08-28T11:27:38.703Z,-25.8
2022-08-28T11:29:39.713Z,-25.6
2022-08-28T11:31:40.923Z,-25.8
2022-08-28T11:33:42.148Z,-25.4
2022-08-28T11:35:43.939Z,-25.7
2022-08-28T11:37:45.511Z,-25.7
2022-08-28T11:39:46.812Z,-25.5
2022-08-28T11:41:48.247Z,-25.3
2022-08-28T11:45:50.091Z,-25.7
2022-08-28T11:47:51.624Z,-25.7
2022-08-28T11:49:52.656Z,-25.6
2022-08-28T11:51:54.075Z,-25.8
2022-08-28T11:59:59.739Z,-25.8
2022-08-28T12:02:00.649Z,-25.3
2022-08-28T12:04:04.947Z,-25.6
2022-08-28T12:06:03.383Z,-25.7
2022-08-28T12:08:04.989Z,-25.3
2022-08-28T12:14:07.930Z,-25.7
2022-08-28T12:16:09.415Z,-25.9
2022-08-28T12:18:10.258Z,-25.4
2022-08-28T12:20:11.722Z,-25.6
2022-08-28T12:22:12.973Z,-25.8
2022-08-28T12:24:14.605Z,-25.7
2022-08-28T12:28:15.827Z,-25.7
2022-08-28T12:30:17.092Z,-25.6
2022-08-28T12:32:18.138Z,-25.6
2022-08-28T12:34:19.270Z,-26
2022-08-28T12:36:20.699Z,-25.7
2022-08-28T12:38:21.594Z,-25.6
2022-08-28T12:40:22.827Z,-25.5
2022-08-28T12:44:25.360Z,-26
2022-08-28T12:46:26.127Z,-25.7
2022-08-28T12:48:27.214Z,-25.8
2022-08-28T12:50:28.229Z,-25.7
2022-08-28T12:56:31.766Z,-25.5
2022-08-28T12:58:33.201Z,-25.8
2022-08-28T13:00:34.882Z,-25.6
2022-08-28T13:02:35.873Z,-25.7
2022-08-28T13:04:36.770Z,-25.9
2022-08-28T13:06:38.043Z,-25.9
2022-08-28T13:12:54.582Z,-25.7
2022-08-28T13:14:43.370Z,-25.8
2022-08-28T13:16:44.625Z,-25.9
2022-08-28T13:18:45.824Z,-25.7
2022-08-28T13:20:46.995Z,-25.8
2022-08-28T13:22:50.797Z,-25.8
2022-08-28T13:24:49.956Z,-25.8
2022-08-28T13:26:51.004Z,-25.7
2022-08-28T13:28:51.862Z,-25.7
2022-08-28T13:30:53.261Z,-25.6
2022-08-28T13:32:54.396Z,-25.8
2022-08-28T13:34:55.671Z,-25.6
2022-08-28T13:36:57.330Z,-26.1
2022-08-28T13:38:58.328Z,-25.9
2022-08-28T13:40:59.884Z,-25.7
2022-08-28T13:43:00.631Z,-25.9
2022-08-28T13:45:01.964Z,-25.9
2022-08-28T13:49:04.038Z,-25.5
2022-08-28T13:51:07.679Z,-25.6
2022-08-28T13:53:06.462Z,-25.5
2022-08-28T13:55:07.551Z,-25.9
2022-08-28T13:57:09.128Z,-25.7
2022-08-28T13:59:10.388Z,-25.9
2022-08-28T14:01:11.383Z,-25.9
2022-08-28T14:03:12.453Z,-25.6
2022-08-28T14:05:13.581Z,-25.7
2022-08-28T14:09:17.629Z,-25.8
2022-08-28T14:11:17.652Z,-25.8
2022-08-28T14:13:18.622Z,-25.7
2022-08-28T14:15:20.059Z,-25.7
2022-08-28T14:19:22.112Z,-25.9
2022-08-28T14:21:22.960Z,-25.7
2022-08-28T14:23:23.993Z,-25.7
2022-08-28T14:25:38.561Z,-25.8
2022-08-28T14:27:26.512Z,-26
2022-08-28T14:29:27.678Z,-26
2022-08-28T14:31:29.733Z,-25.5
2022-08-28T14:33:31.233Z,-25.9
2022-08-28T14:35:32.625Z,-25.6
2022-08-28T14:37:33.503Z,-25.6
2022-08-28T14:41:36.583Z,-25.8
2022-08-28T14:43:38.182Z,-26
2022-08-28T14:45:39.521Z,-25.8
2022-08-28T14:49:42.691Z,-25.8
2022-08-28T14:55:45.670Z,-25.7
2022-08-28T14:57:48.823Z,-25.9
2022-08-28T14:59:48.643Z,-25.8
2022-08-28T15:01:49.613Z,-25.8
2022-08-28T15:03:51.385Z,-25.5
2022-08-28T15:05:52.569Z,-25.5
2022-08-28T15:07:53.464Z,-25.4
2022-08-28T15:09:54.982Z,-25.5
2022-08-28T15:10:38.642Z,-25.2
2022-08-28T15:14:41.687Z,-25.7
2022-08-28T15:16:42.675Z,-25.3
2022-08-28T15:18:44.214Z,-25.7
2022-08-28T15:20:45.504Z,-25.8
2022-08-28T15:22:46.688Z,-25.5
2022-08-28T15:24:48.183Z,-25.8
2022-08-28T15:26:49.421Z,-25.6
2022-08-28T15:28:50.335Z,-25.7
2022-08-28T15:30:51.739Z,-25.8
2022-08-28T15:32:53.231Z,-25.5
2022-08-28T15:34:54.633Z,-25.6
2022-08-28T15:36:56.107Z,-25.4
2022-08-28T15:38:56.677Z,64.19
2022-08-28T15:40:58.267Z,62.9
2022-08-28T15:42:59.879Z,7.8
2022-08-28T15:45:00.717Z,57.5
2022-08-28T15:47:01.583Z,55.3
2022-08-28T15:49:02.897Z,53.8
2022-08-28T15:51:03.787Z,51.3
2022-08-28T15:55:06.186Z,48.1
2022-08-28T15:57:07.237Z,46.1
2022-08-28T15:59:08.111Z,44.7
2022-08-28T16:01:08.878Z,42.5
2022-08-28T16:03:10.674Z,40.3
2022-08-28T16:05:11.836Z,38.09
2022-08-28T16:07:12.794Z,36.9
2022-08-28T16:09:13.923Z,34.4
2022-08-28T16:11:14.738Z,33.4
2022-08-28T16:13:16.451Z,32.5
2022-08-28T16:17:19.013Z,29.4
2022-08-28T16:19:20.233Z,5.2
2022-08-28T16:21:21.555Z,0.8
2022-08-28T16:23:23.100Z,-13.3
2022-08-28T16:29:27.332Z,-21.2
2022-08-28T16:33:29.499Z,-25.6
2022-08-28T16:35:30.345Z,-25.7
2022-08-28T16:37:33.904Z,-25.7
2022-08-28T16:39:33.239Z,-25.6
2022-08-28T16:41:34.109Z,-25.6
2022-08-28T16:43:35.695Z,-25.4
2022-08-28T16:45:37.492Z,-25.7
2022-08-28T16:47:39.182Z,-25.7
2022-08-28T16:49:40.349Z,-25.6
2022-08-28T16:51:42.172Z,-25.8
2022-08-28T16:53:43.487Z,-25.4
2022-08-28T16:55:44.698Z,-25.3
2022-08-28T16:57:46.473Z,-25.5
2022-08-28T16:59:48.256Z,-25.4
2022-08-28T17:01:51.564Z,-25.6
2022-08-28T17:03:50.942Z,-25.6
2022-08-28T17:05:52.671Z,-25.5
2022-08-28T17:07:54.068Z,-25.4
2022-08-28T17:09:55.288Z,-25.7
2022-08-28T17:11:56.138Z,-25.8
2022-08-28T17:13:57.335Z,-25.5
2022-08-28T17:22:02.371Z,-25.7
2022-08-28T17:28:05.505Z,-25.7
2022-08-28T17:30:06.805Z,-25.7
2022-08-28T17:32:07.842Z,-25.8
2022-08-28T17:34:09.035Z,-25.3
2022-08-28T17:36:15.300Z,-25.8
2022-08-28T17:38:10.835Z,-25.7
2022-08-28T17:40:12.448Z,-25.8
2022-08-28T17:42:14.044Z,-25.8
2022-08-28T17:46:16.832Z,-25.8
2022-08-28T17:48:17.887Z,-25.9
2022-08-28T17:50:18.989Z,-25.6
2022-08-28T17:52:20.301Z,-25.3
2022-08-28T17:54:21.340Z,-25.9
2022-08-28T17:56:22.995Z,-25.8
2022-08-28T17:58:24.217Z,-25.8
2022-08-28T18:00:25.908Z,-25.7
2022-08-28T18:02:26.930Z,-25.9
2022-08-28T18:04:27.890Z,-25.6
2022-08-28T18:08:30.731Z,-25.5
2022-08-28T18:10:32.034Z,-25.7
2022-08-28T18:12:33.413Z,-25.8
2022-08-28T18:14:34.315Z,-25.7
2022-08-28T18:16:35.222Z,-25.8
2022-08-28T18:18:36.728Z,-25.7
2022-08-28T18:20:37.889Z,-25.6
2022-08-28T18:22:39.231Z,-25.7
2022-08-28T18:24:40.424Z,-25.8
2022-08-28T18:26:41.728Z,-25.8
2022-08-28T18:28:42.591Z,-25.9
2022-08-28T18:30:43.604Z,-25.9
2022-08-28T18:32:45.370Z,-25.8
2022-08-28T18:34:47.039Z,-25.8
2022-08-28T18:36:47.923Z,-25.9
2022-08-28T18:38:49.545Z,-26
2022-08-28T18:40:51.197Z,-25.9
2022-08-28T18:42:52.887Z,-25.6
2022-08-28T18:44:53.855Z,-25.6
2022-08-28T18:46:54.851Z,-25.6
2022-08-28T18:48:55.628Z,-25.7
2022-08-28T18:50:56.923Z,-25.8
2022-08-28T18:52:57.866Z,-25.6
2022-08-28T18:55:00.693Z,-25.6
2022-08-28T18:57:03.890Z,-25.6
2022-08-28T18:59:03.122Z,-26
2022-08-28T19:01:04.147Z,-25.9
2022-08-28T19:03:05.589Z,-25.8
2022-08-28T19:09:09.682Z,-25.7
2022-08-28T19:11:10.582Z,-25.6
2022-08-28T19:13:11.501Z,-25.7
2022-08-28T19:17:15.936Z,-25.6
2022-08-28T19:19:15.038Z,-25.6
2022-08-28T19:21:16.604Z,-25.6
2022-08-28T19:23:17.938Z,-25.6
2022-08-28T19:25:22.456Z,-25.8
2022-08-28T19:27:19.766Z,-26
2022-08-28T19:29:20.842Z,-25.8
2022-08-28T19:31:22.067Z,-25.8
2022-08-28T19:33:23.412Z,-25.6
2022-08-28T19:37:26.215Z,-25.8
2022-08-28T19:39:27.540Z,-25.7
2022-08-28T19:41:29.035Z,-25.7
2022-08-28T19:43:31.204Z,-25.6
2022-08-28T19:45:32.172Z,-25.6
2022-08-28T19:47:33.950Z,-25.8
2022-08-28T19:49:34.446Z,-25.7
2022-08-28T19:51:36.140Z,-25.8
2022-08-28T19:53:37.493Z,-25.7
2022-08-28T19:55:39.204Z,-25.7
2022-08-28T19:57:40.408Z,-25.5
2022-08-28T19:59:42.271Z,-25.8
2022-08-28T20:01:44.131Z,-25.5
2022-08-28T20:03:45.732Z,-25.8
2022-08-28T20:05:47.330Z,-25.9
2022-08-28T20:07:48.881Z,-25.6
2022-08-28T20:09:50.225Z,-25.5
2022-08-28T20:11:51.240Z,-25.8
2022-08-28T20:13:52.924Z,-25.9
2022-08-28T20:15:54.758Z,-25.7
2022-08-28T20:17:56.044Z,-25.9
2022-08-28T20:19:59.827Z,-25.8
2022-08-28T20:21:58.102Z,-25.9
2022-08-28T20:23:59.291Z,-25.8
2022-08-28T20:28:01.977Z,-25.5
2022-08-28T20:30:04.754Z,-26.1
2022-08-28T20:32:04.443Z,-25.6
2022-08-28T20:34:06.197Z,-25.6
2022-08-28T20:36:07.944Z,-25.7
2022-08-28T20:38:09.279Z,-25.5
2022-08-28T20:40:10.569Z,-26
2022-08-28T20:42:12.188Z,-25.6
2022-08-28T20:44:13.175Z,-25.9
2022-08-28T20:50:16.996Z,-25.7
2022-08-28T20:52:18.666Z,-25.6
2022-08-28T20:54:19.647Z,-25.8
2022-08-28T20:56:21.024Z,-25.8
2022-08-28T21:00:23.712Z,-25.8
2022-08-28T21:04:25.566Z,-25.9
2022-08-28T21:06:26.570Z,-25.9
2022-08-28T21:08:27.813Z,-26
2022-08-28T21:10:29.462Z,-25.8
2022-08-28T21:12:30.762Z,-25.8
2022-08-28T21:14:31.936Z,-26
2022-08-28T21:20:36.892Z,-25.9
2022-08-28T21:22:38.558Z,-25.6
2022-08-28T21:24:39.564Z,-25.8
2022-08-28T21:26:40.504Z,-26.1
2022-08-28T21:28:41.824Z,-25.8
2022-08-28T21:30:42.845Z,-25.9
2022-08-28T21:32:44.462Z,-25.9
2022-08-28T21:34:46.034Z,-25.7
2022-08-28T21:36:50.242Z,-26
2022-08-28T21:38:49.081Z,-25.8
2022-08-28T21:40:50.245Z,-26
2022-08-28T21:42:51.812Z,-25.8
2022-08-28T21:44:52.983Z,-26
2022-08-28T21:46:54.106Z,-25.6
2022-08-28T21:48:55.549Z,-25.8
2022-08-28T21:50:57.148Z,-25.8
2022-08-28T21:52:58.061Z,-26
2022-08-28T21:54:59.104Z,-25.8
2022-08-28T21:55:42.860Z,-25.7
2022-08-28T21:59:45.803Z,-25.7
2022-08-28T22:01:47.125Z,-25.8
2022-08-28T22:03:48.017Z,-25.9
2022-08-28T22:05:49.241Z,-25.9
2022-08-28T22:07:50.718Z,-25.9
2022-08-28T22:09:52.562Z,-25.8
2022-08-28T22:15:56.415Z,-26
2022-08-28T22:17:57.452Z,-25.6
2022-08-28T22:19:59.061Z,-25.7
2022-08-28T22:22:00.780Z,-25.8
2022-08-28T22:24:02.047Z,-25.8
2022-08-28T22:26:03.693Z,-25.6
2022-08-28T22:28:05.109Z,-25.9
2022-08-28T22:30:06.465Z,-26
2022-08-28T22:32:07.739Z,-25.9
2022-08-28T22:36:09.864Z,-25.8
2022-08-28T22:38:11.557Z,-26.1
2022-08-28T22:40:13.038Z,-25.9
2022-08-28T22:42:14.334Z,-26.3
2022-08-28T22:44:15.508Z,-25.8
2022-08-28T22:46:16.651Z,-25.6
2022-08-28T22:48:17.954Z,-26
2022-08-28T22:50:19.801Z,-25.8
2022-08-28T22:54:22.994Z,-25.8
2022-08-28T22:56:24.181Z,-26.2
2022-08-28T22:58:25.776Z,-26.4
2022-08-28T23:00:27.123Z,-26.2
2022-08-28T23:02:28.631Z,-26.3
2022-08-28T23:04:29.982Z,-26.2
2022-08-28T23:06:30.870Z,-26.1
2022-08-28T23:08:33.965Z,-26.2
2022-08-28T23:12:34.821Z,-26.2
2022-08-28T23:14:36.435Z,-26.2
2022-08-28T23:16:37.833Z,-26.2
2022-08-28T23:19:06.354Z,-26.1
2022-08-28T23:20:40.258Z,-26.3
2022-08-28T23:24:42.402Z,-26.5
2022-08-28T23:28:44.602Z,-26.3
2022-08-28T23:30:48.410Z,-26.3
2022-08-28T23:32:46.789Z,-26.2
2022-08-28T23:34:48.208Z,-26.2
2022-08-28T23:40:52.447Z,-26.1
2022-08-28T23:42:53.638Z,-26.3
2022-08-28T23:44:54.733Z,-26
2022-08-28T23:46:56.256Z,-26.2
2022-08-28T23:48:57.375Z,-26.2
2022-08-28T23:50:59.239Z,-26.1
2022-08-28T23:53:00.441Z,-26.2
2022-08-28T23:55:02.254Z,-26.3
2022-08-28T23:57:03.438Z,-25.9
2022-08-28T23:59:05.196Z,-26.1
